createdAt,value
2019-06-20T00:02:06.643Z,4.00
2019-06-20T00:07:04.751Z,4.00
2019-06-20T00:09:34.517Z,3.60
2019-06-20T00:12:03.970Z,3.90
2019-06-20T00:14:33.589Z,4.55
2019-06-20T00:17:03.190Z,4.00
2019-06-20T00:19:32.987Z,3.70
2019-06-20T00:22:02.268Z,3.80
2019-06-20T00:24:33.094Z,3.35
2019-06-20T00:27:02.620Z,3.30
2019-06-20T00:32:16.225Z,3.40
2019-06-20T00:34:47.017Z,3.75
2019-06-20T00:37:16.126Z,3.42
2019-06-20T00:39:45.948Z,3.20
2019-06-20T00:42:15.993Z,3.30
2019-06-20T00:44:45.784Z,3.40
2019-06-20T00:47:15.442Z,3.20
2019-06-20T00:49:45.284Z,2.95
2019-06-20T00:52:15.339Z,2.60
2019-06-20T00:54:45.769Z,3.35
2019-06-20T00:57:15.097Z,2.65
2019-06-20T00:59:43.988Z,2.60
2019-06-20T01:02:14.931Z,2.90
2019-06-20T01:04:45.027Z,2.90
2019-06-20T01:07:57.567Z,2.50
2019-06-20T01:10:27.603Z,2.70
2019-06-20T01:12:57.040Z,3.02
2019-06-20T01:15:27.599Z,2.60
2019-06-20T01:17:57.344Z,2.40
2019-06-20T01:20:26.540Z,2.90
2019-06-20T01:22:56.182Z,2.50
2019-06-20T01:25:40.009Z,2.40
2019-06-20T01:28:11.411Z,2.50
2019-06-20T01:30:40.472Z,2.50
2019-06-20T01:33:10.392Z,2.40
2019-06-20T01:38:08.888Z,2.80
2019-06-20T01:40:38.568Z,2.30
2019-06-20T01:43:07.935Z,2.50
2019-06-20T01:45:38.004Z,2.35
2019-06-20T01:48:06.928Z,2.40
2019-06-20T01:50:37.080Z,2.10
2019-06-20T01:53:06.979Z,2.10
2019-06-20T01:55:37.181Z,2.20
2019-06-20T01:58:06.845Z,2.00
2019-06-20T02:00:47.637Z,2.25
2019-06-20T02:03:17.622Z,2.50
2019-06-20T02:05:46.896Z,2.20
2019-06-20T02:08:16.417Z,2.50
2019-06-20T02:10:45.080Z,2.15
2019-06-20T02:13:14.577Z,2.55
2019-06-20T02:15:43.242Z,2.40
2019-06-20T02:18:12.700Z,2.45
2019-06-20T02:20:49.189Z,2.10
2019-06-20T02:23:19.401Z,1.90
2019-06-20T02:25:49.313Z,2.20
2019-06-20T02:28:19.232Z,2.10
2019-06-20T02:30:49.556Z,2.05
2019-06-20T02:33:19.085Z,2.15
2019-06-20T02:35:47.966Z,2.23
2019-06-20T02:38:17.388Z,2.40
2019-06-20T02:40:47.357Z,2.20
2019-06-20T02:43:17.553Z,2.17
2019-06-20T02:45:46.675Z,2.05
2019-06-20T02:48:15.672Z,2.60
2019-06-20T02:50:45.190Z,2.10
2019-06-20T02:53:14.435Z,2.10
2019-06-20T02:55:43.715Z,2.40
2019-06-20T02:58:13.223Z,2.37
2019-06-20T03:00:54.808Z,2.20
2019-06-20T03:03:23.925Z,2.30
2019-06-20T03:05:54.155Z,2.40
2019-06-20T03:08:23.610Z,2.00
2019-06-20T03:10:53.791Z,2.00
2019-06-20T03:13:23.462Z,2.50
2019-06-20T03:15:53.424Z,2.25
2019-06-20T03:18:23.599Z,1.95
2019-06-20T03:20:53.503Z,2.15
2019-06-20T03:23:22.755Z,2.40
2019-06-20T03:25:51.378Z,2.30
2019-06-20T03:28:20.791Z,2.50
2019-06-20T03:33:20.419Z,2.40
2019-06-20T03:38:18.869Z,2.37
2019-06-20T03:40:48.407Z,2.10
2019-06-20T03:43:17.734Z,2.40
2019-06-20T03:45:47.067Z,1.90
2019-06-20T03:50:45.119Z,2.20
2019-06-20T03:53:15.049Z,2.60
2019-06-20T03:55:44.317Z,2.20
2019-06-20T03:58:14.338Z,2.60
2019-06-20T04:00:44.045Z,2.30
2019-06-20T04:03:13.960Z,2.50
2019-06-20T04:05:43.677Z,2.50
2019-06-20T04:08:13.567Z,2.30
2019-06-20T04:10:43.112Z,2.10
2019-06-20T04:13:13.516Z,1.95
2019-06-20T04:15:42.376Z,2.20
2019-06-20T04:18:12.713Z,2.40
2019-06-20T04:20:42.503Z,2.00
2019-06-20T04:23:11.838Z,2.50
2019-06-20T04:25:41.268Z,1.83
2019-06-20T04:28:10.080Z,2.50
2019-06-20T04:30:39.187Z,2.40
2019-06-20T04:33:08.986Z,3.00
2019-06-20T04:35:38.276Z,2.30
2019-06-20T04:38:07.493Z,2.60
2019-06-20T04:40:37.535Z,2.30
2019-06-20T04:43:07.287Z,2.40
2019-06-20T04:45:55.389Z,2.45
2019-06-20T04:48:25.914Z,2.50
2019-06-20T04:53:24.110Z,2.35
2019-06-20T04:55:53.337Z,2.50
2019-06-20T04:58:23.347Z,2.40
2019-06-20T05:00:53.098Z,2.40
2019-06-20T05:06:05.275Z,2.45
2019-06-20T05:08:36.124Z,2.80
2019-06-20T05:11:05.428Z,2.30
2019-06-20T05:13:34.964Z,2.20
2019-06-20T05:16:04.734Z,2.53
2019-06-20T05:18:34.811Z,2.65
2019-06-20T05:21:04.813Z,2.30
2019-06-20T05:23:34.403Z,2.55
2019-06-20T05:26:04.655Z,2.30
2019-06-20T05:28:34.446Z,2.30
2019-06-20T05:31:05.025Z,2.33
2019-06-20T05:33:35.275Z,2.70
2019-06-20T05:36:05.435Z,2.40
2019-06-20T05:38:35.363Z,2.15
2019-06-20T05:41:05.839Z,2.40
2019-06-20T05:43:35.124Z,2.50
2019-06-20T05:46:09.760Z,2.45
2019-06-20T05:48:37.678Z,2.45
2019-06-20T05:51:06.976Z,2.35
2019-06-20T05:53:37.424Z,2.50
2019-06-20T05:58:48.266Z,2.10
2019-06-20T06:01:18.609Z,2.40
2019-06-20T06:03:48.315Z,2.10
2019-06-20T06:06:18.813Z,2.20
2019-06-20T06:08:48.645Z,2.60
2019-06-20T06:11:19.082Z,2.20
2019-06-20T06:13:50.189Z,2.10
2019-06-20T06:16:26.901Z,2.10
2019-06-20T06:18:51.817Z,2.25
2019-06-20T06:21:21.421Z,2.35
2019-06-20T06:23:50.507Z,2.00
2019-06-20T06:26:20.372Z,2.00
2019-06-20T06:28:50.933Z,2.10
2019-06-20T06:31:20.734Z,2.00
2019-06-20T06:33:49.780Z,2.00
2019-06-20T06:36:19.073Z,2.15
2019-06-20T06:38:48.937Z,2.05
2019-06-20T06:41:18.374Z,1.83
2019-06-20T06:43:48.447Z,2.10
2019-06-20T06:46:18.431Z,1.90
2019-06-20T06:48:48.234Z,1.90
2019-06-20T06:51:18.399Z,1.90
2019-06-20T06:53:48.155Z,1.95
2019-06-20T06:56:17.504Z,1.80
2019-06-20T06:58:47.290Z,2.10
2019-06-20T07:01:17.185Z,1.60
2019-06-20T07:03:46.977Z,1.70
2019-06-20T07:06:16.689Z,1.75
2019-06-20T07:08:46.075Z,1.75
2019-06-20T07:11:15.535Z,1.90
2019-06-20T07:13:45.812Z,1.70
2019-06-20T07:16:14.911Z,1.85
2019-06-20T07:18:44.241Z,1.75
2019-06-20T07:21:14.098Z,1.60
2019-06-20T07:23:44.083Z,1.60
2019-06-20T07:26:12.683Z,1.70
2019-06-20T07:28:42.653Z,1.60
2019-06-20T07:31:12.016Z,1.50
2019-06-20T07:33:41.380Z,1.60
2019-06-20T07:36:10.649Z,1.50
2019-06-20T07:38:40.667Z,1.70
2019-06-20T07:41:10.508Z,1.60
2019-06-20T07:43:39.444Z,1.60
2019-06-20T07:48:35.682Z,1.60
2019-06-20T07:51:04.568Z,1.80
2019-06-20T07:53:34.517Z,1.60
2019-06-20T07:57:57.568Z,1.50
2019-06-20T08:02:55.686Z,1.50
2019-06-20T08:05:25.686Z,1.40
2019-06-20T08:07:55.883Z,1.60
2019-06-20T08:10:25.087Z,1.30
2019-06-20T08:12:55.171Z,1.50
2019-06-20T08:17:53.162Z,1.60
2019-06-20T08:20:22.992Z,1.55
2019-06-20T08:22:52.291Z,1.60
2019-06-20T08:27:50.244Z,1.50
2019-06-20T08:30:24.429Z,1.60
2019-06-20T08:32:54.432Z,1.70
2019-06-20T08:37:53.541Z,1.50
2019-06-20T08:40:22.658Z,1.50
2019-06-20T08:42:52.155Z,1.50
2019-06-20T08:45:24.010Z,1.80
2019-06-20T08:50:22.561Z,1.60
2019-06-20T08:52:51.765Z,1.40
2019-06-20T08:55:20.852Z,1.70
2019-06-20T08:57:50.015Z,1.40
2019-06-20T09:00:18.900Z,1.75
2019-06-20T09:02:47.366Z,1.50
2019-06-20T09:05:16.840Z,1.60
2019-06-20T09:07:46.632Z,1.60
2019-06-20T09:10:18.214Z,1.70
2019-06-20T09:12:48.003Z,1.80
2019-06-20T09:17:46.013Z,1.80
2019-06-20T09:20:14.544Z,1.80
2019-06-20T09:22:44.085Z,1.90
2019-06-20T09:25:12.704Z,1.50
2019-06-20T09:27:42.235Z,1.65
2019-06-20T09:30:11.468Z,1.80
2019-06-20T09:32:41.288Z,1.70
2019-06-20T09:35:10.604Z,1.55
2019-06-20T09:37:40.011Z,1.60
2019-06-20T09:40:10.801Z,1.70
2019-06-20T09:42:39.523Z,1.80
2019-06-20T09:47:37.591Z,1.70
2019-06-20T09:50:07.509Z,1.40
2019-06-20T09:52:36.849Z,1.90
2019-06-20T09:55:06.005Z,1.90
2019-06-20T09:57:35.061Z,1.90
2019-06-20T10:00:09.995Z,1.70
2019-06-20T10:02:36.983Z,1.85
2019-06-20T10:05:07.165Z,1.90
2019-06-20T10:07:37.017Z,2.10
2019-06-20T10:15:05.983Z,2.07
2019-06-20T10:17:35.501Z,2.20
2019-06-20T10:22:33.451Z,2.55
2019-06-20T10:25:02.090Z,2.20
2019-06-20T10:27:31.977Z,2.50
2019-06-20T10:30:14.075Z,2.30
2019-06-20T10:32:32.861Z,2.30
2019-06-20T10:35:02.430Z,2.25
2019-06-20T10:37:31.059Z,2.30
2019-06-20T10:40:00.086Z,2.20
2019-06-20T10:42:30.262Z,2.20
2019-06-20T10:47:33.496Z,1.87
2019-06-20T10:52:28.492Z,2.20
2019-06-20T10:54:58.010Z,2.00
2019-06-20T10:57:27.750Z,1.80
2019-06-20T10:59:56.597Z,2.00
2019-06-20T11:02:25.907Z,1.87
2019-06-20T11:04:54.848Z,2.20
2019-06-20T11:09:30.347Z,2.00
2019-06-20T11:12:00.354Z,2.10
2019-06-20T11:14:29.634Z,2.10
2019-06-20T11:16:58.730Z,2.00
2019-06-20T11:19:28.427Z,2.05
2019-06-20T11:21:58.101Z,2.20
2019-06-20T11:24:27.542Z,1.92
2019-06-20T11:26:57.621Z,1.90
2019-06-20T11:29:26.602Z,2.00
2019-06-20T11:31:56.168Z,1.70
2019-06-20T11:34:25.369Z,2.20
2019-06-20T11:36:55.193Z,2.00
2019-06-20T11:39:25.281Z,1.90
2019-06-20T11:41:55.404Z,1.80
2019-06-20T11:44:24.577Z,2.10
2019-06-20T11:46:53.809Z,1.90
2019-06-20T11:49:22.433Z,1.80
2019-06-20T11:54:20.198Z,2.10
2019-06-20T11:56:49.323Z,1.80
2019-06-20T12:01:47.323Z,1.80
2019-06-20T12:04:17.146Z,1.70
2019-06-20T12:06:47.042Z,1.60
2019-06-20T12:09:15.590Z,1.90
2019-06-20T12:11:44.557Z,1.70
2019-06-20T12:14:13.997Z,1.80
2019-06-20T12:16:44.330Z,1.70
2019-06-20T12:19:13.574Z,1.60
2019-06-20T12:21:42.944Z,1.90
2019-06-20T12:24:12.133Z,1.40
2019-06-20T12:26:42.439Z,1.80
2019-06-20T12:29:11.075Z,1.60
2019-06-20T12:31:41.101Z,1.90
2019-06-20T12:34:10.263Z,1.67
2019-06-20T12:36:40.885Z,1.90
2019-06-20T12:39:10.984Z,1.80
2019-06-20T12:41:41.261Z,1.70
2019-06-20T12:44:10.775Z,1.85
2019-06-20T12:46:40.987Z,1.30
2019-06-20T12:49:09.617Z,1.50
2019-06-20T12:51:40.460Z,1.80
2019-06-20T12:54:09.584Z,1.50
2019-06-20T12:56:40.337Z,1.45
2019-06-20T12:59:10.447Z,1.50
2019-06-20T13:01:44.155Z,1.95
2019-06-20T13:04:11.339Z,2.37
2019-06-20T13:06:42.284Z,1.90
2019-06-20T13:11:40.749Z,2.30
2019-06-20T13:14:10.684Z,1.80
2019-06-20T13:16:40.698Z,1.80
2019-06-20T13:19:10.176Z,2.10
2019-06-20T13:21:40.493Z,2.20
2019-06-20T13:24:10.311Z,2.15
2019-06-20T13:26:40.673Z,2.00
2019-06-20T13:29:10.290Z,1.80
2019-06-20T13:31:56.237Z,1.90
2019-06-20T13:34:10.319Z,1.80
2019-06-20T13:36:41.220Z,2.60
2019-06-20T13:39:12.013Z,1.90
2019-06-20T13:41:42.900Z,2.07
2019-06-20T13:44:11.594Z,2.40
2019-06-20T13:46:43.313Z,2.10
2019-06-20T13:49:12.490Z,1.92
2019-06-20T13:51:41.999Z,1.90
2019-06-20T13:54:11.782Z,1.90
2019-06-20T13:56:42.288Z,2.10
2019-06-20T13:59:11.889Z,1.90
2019-06-20T14:01:41.919Z,2.10
2019-06-20T14:04:11.721Z,1.85
2019-06-20T14:09:10.794Z,1.95
2019-06-20T14:11:41.413Z,1.80
2019-06-20T14:14:11.857Z,2.17
2019-06-20T14:16:41.742Z,1.97
2019-06-20T14:19:12.254Z,2.50
2019-06-20T14:21:42.492Z,2.20
2019-06-20T14:24:13.201Z,2.40
2019-06-20T14:26:44.695Z,1.85
2019-06-20T14:29:13.107Z,1.90
2019-06-20T14:31:42.621Z,1.85
2019-06-20T14:36:40.811Z,1.67
2019-06-20T14:39:09.878Z,1.95
2019-06-20T14:41:40.320Z,2.25
2019-06-20T14:44:09.821Z,1.90
2019-06-20T14:46:39.539Z,1.70
2019-06-20T14:49:08.608Z,2.35
2019-06-20T14:51:37.954Z,2.05
2019-06-20T14:54:07.894Z,1.90
2019-06-20T14:56:37.357Z,1.70
2019-06-20T14:59:06.951Z,2.13
2019-06-20T15:03:33.273Z,1.75
2019-06-20T15:06:02.610Z,1.70
2019-06-20T15:08:31.552Z,1.70
2019-06-20T15:11:01.703Z,1.70
2019-06-20T15:13:30.486Z,1.70
2019-06-20T15:16:00.481Z,1.50
2019-06-20T15:18:30.261Z,1.70
2019-06-20T15:20:59.614Z,1.80
2019-06-20T15:23:29.253Z,1.93
2019-06-20T15:28:27.570Z,1.70
2019-06-20T15:30:57.291Z,1.70
2019-06-20T15:33:26.726Z,1.40
2019-06-20T15:35:56.985Z,1.80
2019-06-20T15:38:28.453Z,1.80
2019-06-20T15:40:58.103Z,1.60
2019-06-20T15:43:27.810Z,1.30
2019-06-20T15:48:27.902Z,1.50
2019-06-20T15:50:57.848Z,1.80
2019-06-20T15:53:26.699Z,1.50
2019-06-20T15:55:56.155Z,1.50
2019-06-20T15:58:25.756Z,1.60
2019-06-20T16:00:55.258Z,1.50
2019-06-20T16:05:53.330Z,1.60
2019-06-20T16:08:22.468Z,1.50
2019-06-20T16:10:51.196Z,1.65
2019-06-20T16:13:20.554Z,1.53
2019-06-20T16:15:50.515Z,1.75
2019-06-20T16:18:20.130Z,1.37
2019-06-20T16:20:49.013Z,1.75
2019-06-20T16:25:46.850Z,1.95
2019-06-20T16:28:16.629Z,1.80
2019-06-20T16:30:46.053Z,1.75
2019-06-20T16:33:24.596Z,1.80
2019-06-20T16:35:45.989Z,1.80
2019-06-20T16:38:14.542Z,1.70
2019-06-20T16:40:45.657Z,1.85
2019-06-20T16:43:15.216Z,1.70
2019-06-20T16:45:45.513Z,1.85
2019-06-20T16:48:15.365Z,1.75
2019-06-20T16:50:44.565Z,1.70
2019-06-20T16:53:15.053Z,1.60
2019-06-20T16:55:44.185Z,1.80
2019-06-20T16:58:13.361Z,1.70
2019-06-20T17:00:42.550Z,1.93
2019-06-20T17:08:23.116Z,1.75
2019-06-20T17:10:53.048Z,1.53
2019-06-20T17:13:22.970Z,1.60
2019-06-20T17:15:52.355Z,1.60
2019-06-20T17:18:21.924Z,1.90
2019-06-20T17:20:50.623Z,1.70
2019-06-20T17:23:19.544Z,1.90
2019-06-20T17:25:48.531Z,2.10
2019-06-20T17:28:16.922Z,1.50
2019-06-20T17:33:31.553Z,1.60
2019-06-20T17:36:00.761Z,1.40
2019-06-20T17:38:30.937Z,1.60
2019-06-20T17:40:59.780Z,1.60
2019-06-20T17:43:29.260Z,1.80
2019-06-20T17:45:58.459Z,1.70
2019-06-20T17:48:27.507Z,1.80
2019-06-20T17:50:57.279Z,1.60
2019-06-20T17:53:27.193Z,1.60
2019-06-20T17:55:57.225Z,1.70
2019-06-20T17:58:26.820Z,1.80
2019-06-20T18:00:55.737Z,1.80
2019-06-20T18:03:25.019Z,1.70
2019-06-20T18:05:55.025Z,2.00
2019-06-20T18:10:38.997Z,1.80
2019-06-20T18:13:09.477Z,1.80
2019-06-20T18:18:08.795Z,1.65
2019-06-20T18:20:37.496Z,1.90
2019-06-20T18:23:08.024Z,1.60
2019-06-20T18:25:37.277Z,1.50
2019-06-20T18:28:07.806Z,1.60
2019-06-20T18:30:43.887Z,1.90
2019-06-20T18:33:13.474Z,1.80
2019-06-20T18:35:43.300Z,1.60
2019-06-20T18:38:13.786Z,1.60
2019-06-20T18:40:43.386Z,1.90
2019-06-20T18:43:12.990Z,1.60
2019-06-20T18:45:42.592Z,1.80
2019-06-20T18:50:42.447Z,2.00
2019-06-20T18:53:12.667Z,2.17
2019-06-20T18:55:42.671Z,1.60
2019-06-20T18:58:11.981Z,1.60
2019-06-20T19:03:09.787Z,1.83
2019-06-20T19:05:40.698Z,1.90
2019-06-20T19:08:10.096Z,2.10
2019-06-20T19:10:39.439Z,1.80
2019-06-20T19:13:09.298Z,2.15
2019-06-20T19:15:38.684Z,2.70
2019-06-20T19:18:07.417Z,2.10
2019-06-20T19:20:36.989Z,2.05
2019-06-20T19:23:06.785Z,2.10
2019-06-20T19:25:35.891Z,2.30
2019-06-20T19:30:48.251Z,1.80
2019-06-20T19:33:17.962Z,2.00
2019-06-20T19:38:28.982Z,2.10
2019-06-20T19:40:58.694Z,2.40
2019-06-20T19:43:28.436Z,2.60
2019-06-20T19:45:57.931Z,2.15
2019-06-20T19:48:28.121Z,2.00
2019-06-20T19:50:57.464Z,2.25
2019-06-20T19:53:26.590Z,2.17
2019-06-20T19:55:56.649Z,2.00
2019-06-20T19:58:26.264Z,2.30
2019-06-20T20:00:56.389Z,2.40
2019-06-20T20:03:26.694Z,2.05
2019-06-20T20:05:58.234Z,2.10
2019-06-20T20:08:27.952Z,2.25
2019-06-20T20:10:57.886Z,2.20
2019-06-20T20:13:28.046Z,2.10
2019-06-20T20:15:57.811Z,2.10
2019-06-20T20:18:26.518Z,2.20
2019-06-20T20:20:56.670Z,2.00
2019-06-20T20:23:27.152Z,1.80
2019-06-20T20:25:57.075Z,2.00
2019-06-20T20:28:27.137Z,2.00
2019-06-20T20:30:57.529Z,2.15
2019-06-20T20:33:27.533Z,1.90
2019-06-20T20:35:57.786Z,1.70
2019-06-20T20:38:27.488Z,1.60
2019-06-20T20:40:57.798Z,1.60
2019-06-20T20:43:27.328Z,1.80
2019-06-20T20:45:55.839Z,1.85
2019-06-20T20:48:26.213Z,1.90
2019-06-20T20:50:55.568Z,1.70
2019-06-20T20:53:24.913Z,1.80
2019-06-20T20:55:54.975Z,1.80
2019-06-20T20:58:25.571Z,1.90
2019-06-20T21:01:10.502Z,2.10
2019-06-20T21:03:42.044Z,1.80
2019-06-20T21:06:14.900Z,1.60
2019-06-20T21:11:15.294Z,1.70
2019-06-20T21:13:45.360Z,1.50
2019-06-20T21:16:15.211Z,1.90
2019-06-20T21:18:44.308Z,1.60
2019-06-20T21:21:14.619Z,1.60
2019-06-20T21:26:12.484Z,1.70
2019-06-20T21:28:41.925Z,1.95
2019-06-20T21:33:40.048Z,1.80
2019-06-20T21:38:52.443Z,1.70
2019-06-20T21:41:22.540Z,1.80
2019-06-20T21:43:52.577Z,1.30
2019-06-20T21:46:22.284Z,1.60
2019-06-20T21:48:52.455Z,1.70
2019-06-20T21:51:22.046Z,1.70
2019-06-20T21:53:52.901Z,1.35
2019-06-20T21:58:50.930Z,1.70
2019-06-20T22:01:20.566Z,1.55
2019-06-20T22:03:50.309Z,1.60
2019-06-20T22:06:24.082Z,1.77
2019-06-20T22:13:56.534Z,1.80
2019-06-20T22:16:26.416Z,1.50
2019-06-20T22:18:56.117Z,1.70
2019-06-20T22:21:25.616Z,1.53
2019-06-20T22:23:55.324Z,1.70
2019-06-20T22:26:25.176Z,1.40
2019-06-20T22:28:54.730Z,1.70
2019-06-20T22:33:53.263Z,1.40
2019-06-20T22:36:22.680Z,1.60
2019-06-20T22:38:52.245Z,1.73
2019-06-20T22:41:21.692Z,1.35
2019-06-20T22:43:51.851Z,1.60
2019-06-20T22:46:21.562Z,1.40
2019-06-20T22:48:52.332Z,1.50
2019-06-20T22:51:22.078Z,1.50
2019-06-20T22:53:52.569Z,1.35
2019-06-20T22:56:22.681Z,2.03
2019-06-20T22:58:52.689Z,1.60
2019-06-20T23:01:22.577Z,1.30
2019-06-20T23:03:51.461Z,1.50
2019-06-20T23:06:21.067Z,1.50
2019-06-20T23:11:33.942Z,1.20
2019-06-20T23:14:04.160Z,1.50
2019-06-20T23:16:33.713Z,1.10
2019-06-20T23:19:02.754Z,1.20
2019-06-20T23:21:32.032Z,1.40
2019-06-20T23:24:01.863Z,1.10
2019-06-20T23:26:32.021Z,1.17
2019-06-20T23:29:21.060Z,1.20
2019-06-20T23:31:50.973Z,1.40
2019-06-20T23:34:20.405Z,1.25
2019-06-20T23:36:49.533Z,1.60
2019-06-20T23:39:17.947Z,1.20
2019-06-20T23:44:16.596Z,1.17
2019-06-20T23:46:45.823Z,1.20
2019-06-20T23:52:13.076Z,1.10
2019-06-20T23:54:43.430Z,1.20
2019-06-20T23:57:12.575Z,1.30
2019-06-20T23:59:42.208Z,1.10
